sensor_id;sensor_type;location;lat;lon;timestamp;pressure;altitude;pressure_sealevel;temperature;humidity
79150;BME280;68563;45.644;13.782;2023-08-31T00:02:20;100367.50;;;17.62;70.78
79150;BME280;68563;45.644;13.782;2023-08-31T00:04:45;100369.22;;;17.63;70.81
79150;BME280;68563;45.644;13.782;2023-08-31T00:07:11;100359.53;;;17.65;69.12
79150;BME280;68563;45.644;13.782;2023-08-31T00:09:36;100367.06;;;17.72;67.82
79150;BME280;68563;45.644;13.782;2023-08-31T00:12:02;100373.16;;;17.72;67.84
79150;BME280;68563;45.644;13.782;2023-08-31T00:14:28;100384.50;;;17.73;67.75
79150;BME280;68563;45.644;13.782;2023-08-31T00:16:53;100379.19;;;17.74;67.83
79150;BME280;68563;45.644;13.782;2023-08-31T00:19:19;100381.50;;;17.80;66.91
79150;BME280;68563;45.644;13.782;2023-08-31T00:21:44;100390.34;;;17.78;66.45
79150;BME280;68563;45.644;13.782;2023-08-31T00:24:10;100392.97;;;17.78;66.18
79150;BME280;68563;45.644;13.782;2023-08-31T00:26:36;100399.13;;;17.77;66.96
79150;BME280;68563;45.644;13.782;2023-08-31T00:29:06;100413.16;;;17.76;66.73
79150;BME280;68563;45.644;13.782;2023-08-31T00:31:32;100400.75;;;17.79;65.57
79150;BME280;68563;45.644;13.782;2023-08-31T00:33:59;100402.88;;;17.71;65.91
79150;BME280;68563;45.644;13.782;2023-08-31T00:36:30;100415.06;;;17.72;66.73
79150;BME280;68563;45.644;13.782;2023-08-31T00:38:56;100421.00;;;17.76;65.85
79150;BME280;68563;45.644;13.782;2023-08-31T00:41:22;100425.31;;;17.77;65.90
79150;BME280;68563;45.644;13.782;2023-08-31T00:43:47;100423.69;;;17.74;65.42
79150;BME280;68563;45.644;13.782;2023-08-31T00:46:13;100423.50;;;17.79;65.14
79150;BME280;68563;45.644;13.782;2023-08-31T00:48:40;100418.31;;;17.77;64.84
79150;BME280;68563;45.644;13.782;2023-08-31T00:51:05;100425.19;;;17.80;65.00
79150;BME280;68563;45.644;13.782;2023-08-31T00:53:31;100430.56;;;17.77;65.85
79150;BME280;68563;45.644;13.782;2023-08-31T00:55:57;100438.34;;;17.78;66.61
79150;BME280;68563;45.644;13.782;2023-08-31T00:58:22;100439.97;;;17.81;66.58
79150;BME280;68563;45.644;13.782;2023-08-31T01:01:13;100437.50;;;17.78;67.14
79150;BME280;68563;45.644;13.782;2023-08-31T01:03:54;100436.72;;;17.76;66.98
79150;BME280;68563;45.644;13.782;2023-08-31T01:06:41;100432.38;;;17.75;67.15
79150;BME280;68563;45.644;13.782;2023-08-31T01:09:19;100435.94;;;17.74;66.60
79150;BME280;68563;45.644;13.782;2023-08-31T01:11:57;100418.88;;;17.65;66.51
79150;BME280;68563;45.644;13.782;2023-08-31T01:14:29;100435.16;;;17.72;66.53
79150;BME280;68563;45.644;13.782;2023-08-31T01:16:58;100437.88;;;17.70;66.54
79150;BME280;68563;45.644;13.782;2023-08-31T01:22:14;100434.88;;;17.78;66.05
79150;BME280;68563;45.644;13.782;2023-08-31T01:24:42;100453.06;;;17.81;66.04
79150;BME280;68563;45.644;13.782;2023-08-31T01:27:09;100449.59;;;17.80;66.14
79150;BME280;68563;45.644;13.782;2023-08-31T01:29:35;100458.38;;;17.79;65.96
79150;BME280;68563;45.644;13.782;2023-08-31T01:32:05;100452.31;;;17.79;66.01
79150;BME280;68563;45.644;13.782;2023-08-31T01:34:31;100448.97;;;17.75;65.86
79150;BME280;68563;45.644;13.782;2023-08-31T01:36:58;100442.94;;;17.73;65.69
79150;BME280;68563;45.644;13.782;2023-08-31T01:39:42;100452.44;;;17.76;66.04
79150;BME280;68563;45.644;13.782;2023-08-31T01:42:12;100438.28;;;17.80;65.59
79150;BME280;68563;45.644;13.782;2023-08-31T01:44:39;100439.41;;;17.74;66.31
79150;BME280;68563;45.644;13.782;2023-08-31T01:47:06;100435.09;;;17.73;66.43
79150;BME280;68563;45.644;13.782;2023-08-31T01:49:38;100438.63;;;17.72;65.81
79150;BME280;68563;45.644;13.782;2023-08-31T01:52:04;100441.03;;;17.77;65.91
79150;BME280;68563;45.644;13.782;2023-08-31T01:54:30;100445.50;;;17.75;65.63
79150;BME280;68563;45.644;13.782;2023-08-31T01:56:55;100432.38;;;17.75;65.18
79150;BME280;68563;45.644;13.782;2023-08-31T01:59:21;100429.34;;;17.65;64.90
79150;BME280;68563;45.644;13.782;2023-08-31T02:01:46;100438.84;;;17.67;64.96
79150;BME280;68563;45.644;13.782;2023-08-31T02:04:12;100441.25;;;17.72;64.35
79150;BME280;68563;45.644;13.782;2023-08-31T02:06:37;100447.47;;;17.69;64.92
79150;BME280;68563;45.644;13.782;2023-08-31T02:09:02;100449.88;;;17.74;64.44
79150;BME280;68563;45.644;13.782;2023-08-31T02:11:28;100456.13;;;17.72;64.68
79150;BME280;68563;45.644;13.782;2023-08-31T02:13:53;100451.59;;;17.75;64.42
79150;BME280;68563;45.644;13.782;2023-08-31T02:16:19;100452.50;;;17.74;64.84
79150;BME280;68563;45.644;13.782;2023-08-31T02:18:44;100455.84;;;17.78;64.26
79150;BME280;68563;45.644;13.782;2023-08-31T02:21:09;100458.75;;;17.72;64.90
79150;BME280;68563;45.644;13.782;2023-08-31T02:23:35;100470.84;;;17.74;65.12
79150;BME280;68563;45.644;13.782;2023-08-31T02:26:00;100459.78;;;17.67;64.74
79150;BME280;68563;45.644;13.782;2023-08-31T02:28:26;100469.22;;;17.72;64.45
79150;BME280;68563;45.644;13.782;2023-08-31T02:30:58;100464.06;;;17.70;64.25
79150;BME280;68563;45.644;13.782;2023-08-31T02:33:24;100465.59;;;17.74;64.43
79150;BME280;68563;45.644;13.782;2023-08-31T02:35:50;100464.09;;;17.68;64.05
79150;BME280;68563;45.644;13.782;2023-08-31T02:38:15;100458.75;;;17.72;63.98
79150;BME280;68563;45.644;13.782;2023-08-31T02:40:41;100451.81;;;17.70;63.96
79150;BME280;68563;45.644;13.782;2023-08-31T02:43:07;100445.78;;;17.68;64.48
79150;BME280;68563;45.644;13.782;2023-08-31T02:45:32;100449.97;;;17.73;64.51
79150;BME280;68563;45.644;13.782;2023-08-31T02:47:57;100456.13;;;17.72;63.93
79150;BME280;68563;45.644;13.782;2023-08-31T02:50:23;100459.44;;;17.75;63.44
79150;BME280;68563;45.644;13.782;2023-08-31T02:52:48;100457.81;;;17.73;63.26
79150;BME280;68563;45.644;13.782;2023-08-31T02:55:14;100472.53;;;17.75;63.34
79150;BME280;68563;45.644;13.782;2023-08-31T02:57:39;100472.53;;;17.75;63.69
79150;BME280;68563;45.644;13.782;2023-08-31T03:00:05;100469.75;;;17.78;62.80
79150;BME280;68563;45.644;13.782;2023-08-31T03:02:34;100463.78;;;17.76;62.95
79150;BME280;68563;45.644;13.782;2023-08-31T03:04:59;100463.81;;;17.75;63.14
79150;BME280;68563;45.644;13.782;2023-08-31T03:07:26;100473.25;;;17.79;62.18
79150;BME280;68563;45.644;13.782;2023-08-31T03:09:52;100472.53;;;17.75;62.23
79150;BME280;68563;45.644;13.782;2023-08-31T03:12:17;100478.50;;;17.79;62.08
79150;BME280;68563;45.644;13.782;2023-08-31T03:14:43;100469.84;;;17.77;62.29
79150;BME280;68563;45.644;13.782;2023-08-31T03:17:08;100472.69;;;17.72;63.79
79150;BME280;68563;45.644;13.782;2023-08-31T03:19:34;100470.75;;;17.76;62.77
79150;BME280;68563;45.644;13.782;2023-08-31T03:21:59;100477.56;;;17.80;62.69
79150;BME280;68563;45.644;13.782;2023-08-31T03:24:24;100478.13;;;17.67;62.59
79150;BME280;68563;45.644;13.782;2023-08-31T03:26:50;100484.94;;;17.72;62.75
79150;BME280;68563;45.644;13.782;2023-08-31T03:29:15;100496.25;;;17.72;63.07
79150;BME280;68563;45.644;13.782;2023-08-31T03:31:41;100498.09;;;17.70;63.20
79150;BME280;68563;45.644;13.782;2023-08-31T03:34:06;100496.31;;;17.70;63.58
79150;BME280;68563;45.644;13.782;2023-08-31T03:36:31;100501.69;;;17.67;62.69
79150;BME280;68563;45.644;13.782;2023-08-31T03:38:57;100504.31;;;17.67;63.02
79150;BME280;68563;45.644;13.782;2023-08-31T03:41:22;100501.97;;;17.61;63.27
79150;BME280;68563;45.644;13.782;2023-08-31T03:43:47;100508.91;;;17.62;63.89
79150;BME280;68563;45.644;13.782;2023-08-31T03:46:13;100524.63;;;17.62;63.96
79150;BME280;68563;45.644;13.782;2023-08-31T03:48:38;100521.91;;;17.64;63.69
79150;BME280;68563;45.644;13.782;2023-08-31T03:51:03;100524.50;;;17.65;63.23
79150;BME280;68563;45.644;13.782;2023-08-31T03:53:29;100531.69;;;17.60;63.32
79150;BME280;68563;45.644;13.782;2023-08-31T03:55:54;100531.56;;;17.63;63.49
79150;BME280;68563;45.644;13.782;2023-08-31T03:58:20;100534.38;;;17.59;63.38
79150;BME280;68563;45.644;13.782;2023-08-31T04:00:49;100537.06;;;17.57;63.42
79150;BME280;68563;45.644;13.782;2023-08-31T04:03:14;100542.13;;;17.62;62.60
79150;BME280;68563;45.644;13.782;2023-08-31T04:05:39;100542.03;;;17.63;61.79
79150;BME280;68563;45.644;13.782;2023-08-31T04:08:05;100545.66;;;17.61;61.91
79150;BME280;68563;45.644;13.782;2023-08-31T04:10:31;100541.31;;;17.60;62.45
79150;BME280;68563;45.644;13.782;2023-08-31T04:12:57;100548.97;;;17.64;62.64
79150;BME280;68563;45.644;13.782;2023-08-31T04:15:23;100551.69;;;17.63;62.81
79150;BME280;68563;45.644;13.782;2023-08-31T04:17:48;100548.97;;;17.64;62.72
79150;BME280;68563;45.644;13.782;2023-08-31T04:20:15;100553.44;;;17.62;63.25
79150;BME280;68563;45.644;13.782;2023-08-31T04:22:40;100556.91;;;17.63;63.52
79150;BME280;68563;45.644;13.782;2023-08-31T04:25:06;100558.81;;;17.59;64.00
79150;BME280;68563;45.644;13.782;2023-08-31T04:27:31;100564.81;;;17.61;63.40
79150;BME280;68563;45.644;13.782;2023-08-31T04:30:00;100566.72;;;17.58;64.03
79150;BME280;68563;45.644;13.782;2023-08-31T04:32:26;100567.59;;;17.58;64.56
79150;BME280;68563;45.644;13.782;2023-08-31T04:34:52;100563.06;;;17.62;63.70
79150;BME280;68563;45.644;13.782;2023-08-31T04:37:17;100574.53;;;17.59;64.23
79150;BME280;68563;45.644;13.782;2023-08-31T04:39:43;100578.81;;;17.60;63.97
79150;BME280;68563;45.644;13.782;2023-08-31T04:42:08;100584.06;;;17.60;63.12
79150;BME280;68563;45.644;13.782;2023-08-31T04:44:34;100581.59;;;17.57;62.49
79150;BME280;68563;45.644;13.782;2023-08-31T04:46:59;100587.75;;;17.56;63.78
79150;BME280;68563;45.644;13.782;2023-08-31T04:49:25;100592.06;;;17.57;63.50
79150;BME280;68563;45.644;13.782;2023-08-31T04:51:51;100596.38;;;17.58;64.70
79150;BME280;68563;45.644;13.782;2023-08-31T04:54:17;100589.56;;;17.54;64.23
79150;BME280;68563;45.644;13.782;2023-08-31T04:56:43;100599.91;;;17.57;64.93
79150;BME280;68563;45.644;13.782;2023-08-31T04:59:08;100607.63;;;17.60;64.27
79150;BME280;68563;45.644;13.782;2023-08-31T05:01:33;100598.84;;;17.61;65.58
79150;BME280;68563;45.644;13.782;2023-08-31T05:03:59;100615.72;;;17.75;64.98
79150;BME280;68563;45.644;13.782;2023-08-31T05:06:24;100626.72;;;17.83;64.35
79150;BME280;68563;45.644;13.782;2023-08-31T05:08:50;100617.88;;;17.85;64.65
79150;BME280;68563;45.644;13.782;2023-08-31T05:11:15;100630.66;;;17.93;64.73
79150;BME280;68563;45.644;13.782;2023-08-31T05:13:41;100624.25;;;18.00;63.78
79150;BME280;68563;45.644;13.782;2023-08-31T05:16:09;100615.84;;;18.13;62.04
79150;BME280;68563;45.644;13.782;2023-08-31T05:18:35;100638.88;;;18.25;59.95
79150;BME280;68563;45.644;13.782;2023-08-31T05:21:01;100637.78;;;18.29;60.48
79150;BME280;68563;45.644;13.782;2023-08-31T05:23:27;100636.16;;;18.27;60.84
79150;BME280;68563;45.644;13.782;2023-08-31T05:25:52;100647.16;;;18.35;61.98
79150;BME280;68563;45.644;13.782;2023-08-31T05:28:18;100649.38;;;18.44;61.59
79150;BME280;68563;45.644;13.782;2023-08-31T05:30:50;100653.75;;;18.44;60.76
79150;BME280;68563;45.644;13.782;2023-08-31T05:33:19;100655.03;;;18.35;61.01
79150;BME280;68563;45.644;13.782;2023-08-31T05:35:45;100656.13;;;18.29;61.04
79150;BME280;68563;45.644;13.782;2023-08-31T05:38:11;100662.31;;;18.28;60.97
79150;BME280;68563;45.644;13.782;2023-08-31T05:40:36;100648.72;;;18.20;61.10
79150;BME280;68563;45.644;13.782;2023-08-31T05:43:02;100664.25;;;18.25;60.79
79150;BME280;68563;45.644;13.782;2023-08-31T05:45:31;100660.66;;;18.26;60.83
79150;BME280;68563;45.644;13.782;2023-08-31T05:47:57;100665.06;;;18.25;60.13
79150;BME280;68563;45.644;13.782;2023-08-31T05:50:22;100664.53;;;18.18;60.80
79150;BME280;68563;45.644;13.782;2023-08-31T05:52:48;100673.56;;;18.30;62.07
79150;BME280;68563;45.644;13.782;2023-08-31T05:55:13;100668.16;;;18.54;60.82
79150;BME280;68563;45.644;13.782;2023-08-31T05:57:38;100662.94;;;18.72;62.55
79150;BME280;68563;45.644;13.782;2023-08-31T06:00:06;100662.88;;;18.92;59.43
79150;BME280;68563;45.644;13.782;2023-08-31T06:02:34;100657.19;;;19.02;59.12
79150;BME280;68563;45.644;13.782;2023-08-31T06:05:01;100656.66;;;19.12;58.99
79150;BME280;68563;45.644;13.782;2023-08-31T06:07:26;100659.06;;;19.17;58.74
79150;BME280;68563;45.644;13.782;2023-08-31T06:09:54;100652.22;;;19.32;58.87
79150;BME280;68563;45.644;13.782;2023-08-31T06:12:20;100658.47;;;19.29;57.65
79150;BME280;68563;45.644;13.782;2023-08-31T06:14:45;100651.44;;;19.30;57.49
79150;BME280;68563;45.644;13.782;2023-08-31T06:17:10;100662.00;;;19.28;57.14
79150;BME280;68563;45.644;13.782;2023-08-31T06:19:41;100654.75;;;19.34;56.78
79150;BME280;68563;45.644;13.782;2023-08-31T06:22:07;100660.63;;;19.39;57.16
79150;BME280;68563;45.644;13.782;2023-08-31T06:24:32;100659.22;;;19.49;57.23
79150;BME280;68563;45.644;13.782;2023-08-31T06:26:59;100659.00;;;19.54;56.08
79150;BME280;68563;45.644;13.782;2023-08-31T06:29:24;100662.00;;;19.64;55.98
79150;BME280;68563;45.644;13.782;2023-08-31T06:31:50;100665.09;;;19.72;56.00
79150;BME280;68563;45.644;13.782;2023-08-31T06:34:15;100677.69;;;19.83;54.92
79150;BME280;68563;45.644;13.782;2023-08-31T06:36:41;100675.56;;;19.91;54.46
79150;BME280;68563;45.644;13.782;2023-08-31T06:39:06;100679.63;;;19.97;54.22
79150;BME280;68563;45.644;13.782;2023-08-31T06:41:32;100672.28;;;20.03;53.80
79150;BME280;68563;45.644;13.782;2023-08-31T06:43:57;100681.44;;;20.12;53.44
79150;BME280;68563;45.644;13.782;2023-08-31T06:46:23;100686.56;;;20.15;52.94
79150;BME280;68563;45.644;13.782;2023-08-31T06:48:48;100682.03;;;20.17;53.21
79150;BME280;68563;45.644;13.782;2023-08-31T06:51:17;100693.00;;;20.25;53.57
79150;BME280;68563;45.644;13.782;2023-08-31T06:53:43;100704.91;;;20.33;53.07
79150;BME280;68563;45.644;13.782;2023-08-31T06:56:09;100705.00;;;20.31;52.83
79150;BME280;68563;45.644;13.782;2023-08-31T06:58:34;100703.97;;;20.34;52.78
79150;BME280;68563;45.644;13.782;2023-08-31T07:01:00;100704.22;;;20.29;52.78
79150;BME280;68563;45.644;13.782;2023-08-31T07:03:26;100711.88;;;20.34;52.78
79150;BME280;68563;45.644;13.782;2023-08-31T07:05:51;100713.81;;;20.30;53.24
79150;BME280;68563;45.644;13.782;2023-08-31T07:08:17;100721.88;;;20.27;54.05
79150;BME280;68563;45.644;13.782;2023-08-31T07:10:42;100728.38;;;20.20;54.08
79150;BME280;68563;45.644;13.782;2023-08-31T07:13:08;100727.28;;;20.24;54.58
79150;BME280;68563;45.644;13.782;2023-08-31T07:15:33;100730.84;;;20.23;54.68
79150;BME280;68563;45.644;13.782;2023-08-31T07:17:58;100742.97;;;20.25;55.09
79150;BME280;68563;45.644;13.782;2023-08-31T07:20:24;100738.50;;;20.28;54.80
79150;BME280;68563;45.644;13.782;2023-08-31T07:22:49;100739.41;;;20.27;54.81
79150;BME280;68563;45.644;13.782;2023-08-31T07:25:15;100736.56;;;20.31;55.96
79150;BME280;68563;45.644;13.782;2023-08-31T07:27:40;100742.31;;;20.38;55.96
79150;BME280;68563;45.644;13.782;2023-08-31T07:30:06;100741.00;;;20.47;55.22
79150;BME280;68563;45.644;13.782;2023-08-31T07:32:32;100737.13;;;20.54;55.50
79150;BME280;68563;45.644;13.782;2023-08-31T07:34:57;100735.53;;;20.67;56.51
79150;BME280;68563;45.644;13.782;2023-08-31T07:37:23;100747.44;;;20.91;56.73
79150;BME280;68563;45.644;13.782;2023-08-31T07:39:48;100742.94;;;21.09;55.38
79150;BME280;68563;45.644;13.782;2023-08-31T07:42:13;100748.03;;;21.28;53.06
79150;BME280;68563;45.644;13.782;2023-08-31T07:44:39;100750.06;;;21.39;53.73
79150;BME280;68563;45.644;13.782;2023-08-31T07:47:06;100744.91;;;21.51;52.98
79150;BME280;68563;45.644;13.782;2023-08-31T07:49:32;100748.56;;;21.65;52.86
79150;BME280;68563;45.644;13.782;2023-08-31T07:51:57;100740.91;;;21.76;52.04
79150;BME280;68563;45.644;13.782;2023-08-31T07:54:23;100751.44;;;21.76;50.64
79150;BME280;68563;45.644;13.782;2023-08-31T07:56:48;100748.88;;;21.75;49.49
79150;BME280;68563;45.644;13.782;2023-08-31T07:59:14;100744.63;;;21.72;50.04
79150;BME280;68563;45.644;13.782;2023-08-31T08:01:40;100740.13;;;21.74;50.51
79150;BME280;68563;45.644;13.782;2023-08-31T08:04:06;100751.63;;;21.88;50.81
79150;BME280;68563;45.644;13.782;2023-08-31T08:06:32;100755.25;;;22.01;50.90
79150;BME280;68563;45.644;13.782;2023-08-31T08:08:57;100751.19;;;22.10;49.59
79150;BME280;68563;45.644;13.782;2023-08-31T08:11:22;100760.16;;;22.22;48.28
79150;BME280;68563;45.644;13.782;2023-08-31T08:13:48;100759.22;;;22.08;48.56
79150;BME280;68563;45.644;13.782;2023-08-31T08:16:14;100764.59;;;22.07;48.55
79150;BME280;68563;45.644;13.782;2023-08-31T08:18:40;100770.13;;;22.02;50.53
79150;BME280;68563;45.644;13.782;2023-08-31T08:21:06;100763.81;;;22.05;50.53
79150;BME280;68563;45.644;13.782;2023-08-31T08:23:31;100769.09;;;22.05;50.48
79150;BME280;68563;45.644;13.782;2023-08-31T08:25:56;100757.72;;;22.04;50.33
79150;BME280;68563;45.644;13.782;2023-08-31T08:28:24;100765.31;;;22.09;49.93
79150;BME280;68563;45.644;13.782;2023-08-31T08:30:50;100762.41;;;22.13;49.17
79150;BME280;68563;45.644;13.782;2023-08-31T08:33:15;100769.28;;;22.16;49.96
79150;BME280;68563;45.644;13.782;2023-08-31T08:35:41;100779.56;;;22.21;48.33
79150;BME280;68563;45.644;13.782;2023-08-31T08:38:06;100781.28;;;22.22;49.19
79150;BME280;68563;45.644;13.782;2023-08-31T08:40:31;100780.44;;;22.21;48.45
79150;BME280;68563;45.644;13.782;2023-08-31T08:43:00;100783.25;;;22.18;48.97
79150;BME280;68563;45.644;13.782;2023-08-31T08:45:30;100795.41;;;22.21;48.70
79150;BME280;68563;45.644;13.782;2023-08-31T08:48:02;100795.59;;;22.18;49.54
79150;BME280;68563;45.644;13.782;2023-08-31T08:50:31;100789.38;;;22.19;49.52
79150;BME280;68563;45.644;13.782;2023-08-31T08:52:59;100794.47;;;22.22;48.67
79150;BME280;68563;45.644;13.782;2023-08-31T08:55:25;100796.28;;;22.36;46.24
79150;BME280;68563;45.644;13.782;2023-08-31T08:57:50;100799.25;;;22.29;47.61
79150;BME280;68563;45.644;13.782;2023-08-31T09:00:15;100794.66;;;22.33;47.42
79150;BME280;68563;45.644;13.782;2023-08-31T09:02:41;100800.03;;;22.31;48.07
79150;BME280;68563;45.644;13.782;2023-08-31T09:05:06;100800.56;;;22.38;47.07
79150;BME280;68563;45.644;13.782;2023-08-31T09:07:34;100800.78;;;22.34;46.71
79150;BME280;68563;45.644;13.782;2023-08-31T09:10:01;100804.53;;;22.29;46.76
79150;BME280;68563;45.644;13.782;2023-08-31T09:12:28;100809.16;;;22.26;47.64
79150;BME280;68563;45.644;13.782;2023-08-31T09:15:01;100803.69;;;22.29;46.38
79150;BME280;68563;45.644;13.782;2023-08-31T09:17:37;100807.88;;;22.47;45.12
79150;BME280;68563;45.644;13.782;2023-08-31T09:20:04;100807.66;;;22.36;45.74
79150;BME280;68563;45.644;13.782;2023-08-31T09:22:29;100807.66;;;22.36;46.35
79150;BME280;68563;45.644;13.782;2023-08-31T09:24:54;100809.38;;;22.37;46.35
79150;BME280;68563;45.644;13.782;2023-08-31T09:27:20;100804.19;;;22.36;46.13
79150;BME280;68563;45.644;13.782;2023-08-31T09:29:47;100802.66;;;22.31;47.02
79150;BME280;68563;45.644;13.782;2023-08-31T09:32:19;100810.69;;;22.30;47.79
79150;BME280;68563;45.644;13.782;2023-08-31T09:34:44;100800.97;;;22.30;48.75
79150;BME280;68563;45.644;13.782;2023-08-31T09:37:10;100817.72;;;22.29;50.29
79150;BME280;68563;45.644;13.782;2023-08-31T09:39:39;100811.06;;;22.24;50.52
79150;BME280;68563;45.644;13.782;2023-08-31T09:42:05;100810.66;;;22.15;50.64
79150;BME280;68563;45.644;13.782;2023-08-31T09:44:31;100805.84;;;22.08;50.56
79150;BME280;68563;45.644;13.782;2023-08-31T09:46:57;100803.53;;;22.02;50.43
79150;BME280;68563;45.644;13.782;2023-08-31T09:49:24;100814.19;;;22.00;50.52
79150;BME280;68563;45.644;13.782;2023-08-31T09:51:51;100802.97;;;21.96;50.91
79150;BME280;68563;45.644;13.782;2023-08-31T09:54:18;100804.09;;;21.92;50.82
79150;BME280;68563;45.644;13.782;2023-08-31T09:56:46;100804.22;;;21.91;51.07
79150;BME280;68563;45.644;13.782;2023-08-31T09:59:12;100806.16;;;21.87;50.59
79150;BME280;68563;45.644;13.782;2023-08-31T10:01:39;100809.66;;;21.88;50.74
79150;BME280;68563;45.644;13.782;2023-08-31T10:04:05;100803.34;;;21.90;50.83
79150;BME280;68563;45.644;13.782;2023-08-31T10:06:34;100798.31;;;21.86;50.66
79150;BME280;68563;45.644;13.782;2023-08-31T10:09:01;100807.56;;;21.93;50.63
79150;BME280;68563;45.644;13.782;2023-08-31T10:11:26;100814.56;;;21.94;50.73
79150;BME280;68563;45.644;13.782;2023-08-31T10:13:53;100809.28;;;21.94;51.21
79150;BME280;68563;45.644;13.782;2023-08-31T10:16:20;100806.75;;;21.92;50.84
79150;BME280;68563;45.644;13.782;2023-08-31T10:18:46;100810.31;;;21.91;50.57
79150;BME280;68563;45.644;13.782;2023-08-31T10:21:16;100819.00;;;21.93;50.79
79150;BME280;68563;45.644;13.782;2023-08-31T10:23:46;100826.81;;;21.95;50.48
79150;BME280;68563;45.644;13.782;2023-08-31T10:26:11;100805.41;;;21.85;50.85
79150;BME280;68563;45.644;13.782;2023-08-31T10:28:42;100832.44;;;21.89;50.57
79150;BME280;68563;45.644;13.782;2023-08-31T10:31:16;100822.94;;;21.86;50.22
79150;BME280;68563;45.644;13.782;2023-08-31T10:33:55;100816.78;;;21.86;50.87
79150;BME280;68563;45.644;13.782;2023-08-31T10:36:22;100821.22;;;21.85;51.25
79150;BME280;68563;45.644;13.782;2023-08-31T10:41:24;100816.22;;;21.80;50.92
79150;BME280;68563;45.644;13.782;2023-08-31T10:43:55;100822.25;;;21.82;51.58
79150;BME280;68563;45.644;13.782;2023-08-31T10:46:44;100822.94;;;21.86;52.06
79150;BME280;68563;45.644;13.782;2023-08-31T10:51:36;100830.38;;;21.94;52.57
79150;BME280;68563;45.644;13.782;2023-08-31T10:56:31;100829.19;;;21.99;53.10
79150;BME280;68563;45.644;13.782;2023-08-31T10:59:00;100822.31;;;21.97;53.13
79150;BME280;68563;45.644;13.782;2023-08-31T11:04:18;100834.56;;;22.12;53.62
79150;BME280;68563;45.644;13.782;2023-08-31T11:06:43;100827.78;;;22.08;53.11
79150;BME280;68563;45.644;13.782;2023-08-31T11:09:18;100838.91;;;22.13;53.39
79150;BME280;68563;45.644;13.782;2023-08-31T11:11:44;100837.97;;;22.14;52.77
79150;BME280;68563;45.644;13.782;2023-08-31T11:14:10;100837.78;;;22.18;52.32
79150;BME280;68563;45.644;13.782;2023-08-31T11:16:38;100838.72;;;22.17;51.76
79150;BME280;68563;45.644;13.782;2023-08-31T11:19:03;100832.41;;;22.19;50.43
79150;BME280;68563;45.644;13.782;2023-08-31T11:21:30;100828.75;;;22.22;50.64
79150;BME280;68563;45.644;13.782;2023-08-31T11:23:57;100834.97;;;22.21;49.39
79150;BME280;68563;45.644;13.782;2023-08-31T11:26:25;100823.69;;;22.19;47.61
79150;BME280;68563;45.644;13.782;2023-08-31T11:28:51;100816.03;;;22.14;46.80
79150;BME280;68563;45.644;13.782;2023-08-31T11:31:26;100820.63;;;22.10;47.72
79150;BME280;68563;45.644;13.782;2023-08-31T11:33:54;100820.69;;;22.09;46.13
79150;BME280;68563;45.644;13.782;2023-08-31T11:36:20;100830.25;;;22.11;46.66
79150;BME280;68563;45.644;13.782;2023-08-31T11:38:48;100824.22;;;22.09;47.43
79150;BME280;68563;45.644;13.782;2023-08-31T11:41:13;100831.00;;;22.13;47.08
79150;BME280;68563;45.644;13.782;2023-08-31T11:43:39;100844.56;;;22.22;47.46
79150;BME280;68563;45.644;13.782;2023-08-31T11:46:05;100833.84;;;22.25;47.56
79150;BME280;68563;45.644;13.782;2023-08-31T11:48:32;100848.09;;;22.37;47.61
79150;BME280;68563;45.644;13.782;2023-08-31T11:50:58;100850.91;;;22.34;47.84
79150;BME280;68563;45.644;13.782;2023-08-31T11:53:24;100844.59;;;22.36;47.42
79150;BME280;68563;45.644;13.782;2023-08-31T11:55:51;100843.84;;;22.34;47.91
79150;BME280;68563;45.644;13.782;2023-08-31T11:58:21;100852.88;;;22.30;47.25
79150;BME280;68563;45.644;13.782;2023-08-31T12:00:59;100854.75;;;22.28;47.06
79150;BME280;68563;45.644;13.782;2023-08-31T12:03:26;100854.88;;;22.26;47.19
79150;BME280;68563;45.644;13.782;2023-08-31T12:05:52;100856.47;;;22.29;47.26
79150;BME280;68563;45.644;13.782;2023-08-31T12:08:27;100860.91;;;22.28;46.99
79150;BME280;68563;45.644;13.782;2023-08-31T12:10:53;100859.59;;;22.36;46.09
79150;BME280;68563;45.644;13.782;2023-08-31T12:13:18;100857.81;;;22.36;46.52
79150;BME280;68563;45.644;13.782;2023-08-31T12:15:44;100855.97;;;22.38;46.63
79150;BME280;68563;45.644;13.782;2023-08-31T12:18:12;100850.69;;;22.38;46.58
79150;BME280;68563;45.644;13.782;2023-08-31T12:20:48;100852.53;;;22.36;46.57
79150;BME280;68563;45.644;13.782;2023-08-31T12:23:16;100844.03;;;22.31;46.42
79150;BME280;68563;45.644;13.782;2023-08-31T12:25:51;100846.31;;;22.37;46.37
79150;BME280;68563;45.644;13.782;2023-08-31T12:28:21;100846.41;;;22.36;46.30
79150;BME280;68563;45.644;13.782;2023-08-31T12:30:53;100853.31;;;22.38;46.39
79150;BME280;68563;45.644;13.782;2023-08-31T12:33:20;100854.72;;;22.44;46.10
79150;BME280;68563;45.644;13.782;2023-08-31T12:35:46;100854.06;;;22.40;46.06
79150;BME280;68563;45.644;13.782;2023-08-31T12:38:12;100855.97;;;22.38;46.62
79150;BME280;68563;45.644;13.782;2023-08-31T12:40:37;100858.50;;;22.40;46.71
79150;BME280;68563;45.644;13.782;2023-08-31T12:43:06;100850.69;;;22.38;46.54
79150;BME280;68563;45.644;13.782;2023-08-31T12:45:32;100857.69;;;22.38;46.94
79150;BME280;68563;45.644;13.782;2023-08-31T12:47:59;100853.34;;;22.37;47.57
79150;BME280;68563;45.644;13.782;2023-08-31T12:50:24;100859.50;;;22.37;47.46
79150;BME280;68563;45.644;13.782;2023-08-31T12:52:50;100858.63;;;22.37;47.64